sensor_id;sensor_type;location;lat;lon;timestamp;pressure;altitude;pressure_sealevel;temperature;humidity
48156;BME280;35568;48.104;11.782;2023-04-02T00:02:25;94602.65;;;7.60;48.36
48156;BME280;35568;48.104;11.782;2023-04-02T00:05:30;94601.98;;;7.43;48.38
48156;BME280;35568;48.104;11.782;2023-04-02T00:07:59;94602.46;;;7.60;48.35
48156;BME280;35568;48.104;11.782;2023-04-02T00:10:29;94605.41;;;7.62;48.19
48156;BME280;35568;48.104;11.782;2023-04-02T00:13:00;94605.80;;;7.33;48.28
48156;BME280;35568;48.104;11.782;2023-04-02T00:15:27;94603.06;;;7.20;48.78
48156;BME280;35568;48.104;11.782;2023-04-02T00:17:55;94608.27;;;7.34;48.74
48156;BME280;35568;48.104;11.782;2023-04-02T00:20:23;94607.54;;;7.17;49.00
48156;BME280;35568;48.104;11.782;2023-04-02T00:22:53;94609.80;;;7.15;49.07
48156;BME280;35568;48.104;11.782;2023-04-02T00:25:20;94611.63;;;6.95;49.24
48156;BME280;35568;48.104;11.782;2023-04-02T00:27:47;94612.85;;;7.31;48.81
48156;BME280;35568;48.104;11.782;2023-04-02T00:30:14;94612.70;;;7.32;48.83
48156;BME280;35568;48.104;11.782;2023-04-02T00:32:41;94614.19;;;7.40;49.03
48156;BME280;35568;48.104;11.782;2023-04-02T00:35:12;94616.83;;;7.24;48.85
48156;BME280;35568;48.104;11.782;2023-04-02T00:37:43;94616.15;;;7.29;48.88
48156;BME280;35568;48.104;11.782;2023-04-02T00:40:18;94618.35;;;7.13;49.12
48156;BME280;35568;48.104;11.782;2023-04-02T00:42:47;94617.00;;;7.05;49.23
48156;BME280;35568;48.104;11.782;2023-04-02T00:45:20;94616.20;;;6.98;49.14
48156;BME280;35568;48.104;11.782;2023-04-02T00:47:49;94620.48;;;7.20;48.86
48156;BME280;35568;48.104;11.782;2023-04-02T00:50:22;94619.26;;;6.95;48.65
48156;BME280;35568;48.104;11.782;2023-04-02T00:52:53;94623.13;;;7.11;49.28
48156;BME280;35568;48.104;11.782;2023-04-02T00:55:25;94621.76;;;7.26;49.18
48156;BME280;35568;48.104;11.782;2023-04-02T00:57:54;94625.14;;;6.87;49.11
48156;BME280;35568;48.104;11.782;2023-04-02T01:00:26;94626.09;;;7.02;49.03
48156;BME280;35568;48.104;11.782;2023-04-02T01:03:26;94627.01;;;7.05;49.01
48156;BME280;35568;48.104;11.782;2023-04-02T01:05:57;94627.84;;;7.26;48.83
48156;BME280;35568;48.104;11.782;2023-04-02T01:08:34;94634.63;;;7.02;49.04
48156;BME280;35568;48.104;11.782;2023-04-02T01:11:10;94632.77;;;7.29;48.54
48156;BME280;35568;48.104;11.782;2023-04-02T01:13:46;94632.90;;;7.16;48.54
48156;BME280;35568;48.104;11.782;2023-04-02T01:16:21;94631.37;;;7.36;48.73
48156;BME280;35568;48.104;11.782;2023-04-02T01:18:58;94636.06;;;7.05;48.83
48156;BME280;35568;48.104;11.782;2023-04-02T01:21:40;94635.52;;;7.29;48.43
48156;BME280;35568;48.104;11.782;2023-04-02T01:24:13;94634.08;;;7.24;48.45
48156;BME280;35568;48.104;11.782;2023-04-02T01:26:52;94636.68;;;7.22;48.49
48156;BME280;35568;48.104;11.782;2023-04-02T01:29:21;94638.97;;;7.41;48.33
48156;BME280;35568;48.104;11.782;2023-04-02T01:31:50;94639.02;;;7.51;48.11
48156;BME280;35568;48.104;11.782;2023-04-02T01:34:21;94638.13;;;7.43;48.18
48156;BME280;35568;48.104;11.782;2023-04-02T01:36:59;94637.70;;;7.53;48.12
48156;BME280;35568;48.104;11.782;2023-04-02T01:39:38;94640.90;;;7.58;48.07
48156;BME280;35568;48.104;11.782;2023-04-02T01:42:13;94637.11;;;7.44;48.14
48156;BME280;35568;48.104;11.782;2023-04-02T01:44:47;94637.14;;;7.36;48.37
48156;BME280;35568;48.104;11.782;2023-04-02T01:47:17;94634.98;;;7.42;48.74
48156;BME280;35568;48.104;11.782;2023-04-02T01:49:45;94640.70;;;7.48;48.61
48156;BME280;35568;48.104;11.782;2023-04-02T01:52:16;94647.92;;;7.25;48.56
48156;BME280;35568;48.104;11.782;2023-04-02T01:54:44;94652.33;;;7.19;48.89
48156;BME280;35568;48.104;11.782;2023-04-02T01:57:12;94648.98;;;7.29;48.67
48156;BME280;35568;48.104;11.782;2023-04-02T01:59:39;94657.75;;;6.96;49.02
48156;BME280;35568;48.104;11.782;2023-04-02T02:02:10;94659.12;;;7.01;49.11
48156;BME280;35568;48.104;11.782;2023-04-02T02:04:38;94660.25;;;7.09;49.15
48156;BME280;35568;48.104;11.782;2023-04-02T02:07:12;94667.36;;;7.10;49.02
48156;BME280;35568;48.104;11.782;2023-04-02T02:09:40;94667.19;;;7.15;49.09
48156;BME280;35568;48.104;11.782;2023-04-02T02:12:12;94669.45;;;7.42;48.93
48156;BME280;35568;48.104;11.782;2023-04-02T02:14:45;94668.55;;;7.56;48.36
48156;BME280;35568;48.104;11.782;2023-04-02T02:17:15;94675.74;;;7.18;48.87
48156;BME280;35568;48.104;11.782;2023-04-02T02:19:45;94671.62;;;7.71;48.46
48156;BME280;35568;48.104;11.782;2023-04-02T02:22:24;94672.53;;;7.56;48.40
48156;BME280;35568;48.104;11.782;2023-04-02T02:24:53;94674.18;;;7.72;48.17
48156;BME280;35568;48.104;11.782;2023-04-02T02:27:46;94670.87;;;7.42;48.98
48156;BME280;35568;48.104;11.782;2023-04-02T02:30:16;94672.65;;;7.22;48.89
48156;BME280;35568;48.104;11.782;2023-04-02T02:32:51;94671.31;;;7.54;48.82
48156;BME280;35568;48.104;11.782;2023-04-02T02:35:22;94668.86;;;7.50;48.60
48156;BME280;35568;48.104;11.782;2023-04-02T02:37:58;94673.71;;;7.61;48.52
48156;BME280;35568;48.104;11.782;2023-04-02T02:40:34;94678.29;;;7.62;48.35
48156;BME280;35568;48.104;11.782;2023-04-02T02:43:05;94684.43;;;7.45;48.47
48156;BME280;35568;48.104;11.782;2023-04-02T02:45:37;94681.81;;;7.66;48.07
48156;BME280;35568;48.104;11.782;2023-04-02T02:48:10;94690.24;;;7.53;48.46
48156;BME280;35568;48.104;11.782;2023-04-02T02:50:39;94690.95;;;7.74;48.39
48156;BME280;35568;48.104;11.782;2023-04-02T02:53:16;94691.73;;;7.50;48.43
48156;BME280;35568;48.104;11.782;2023-04-02T02:55:43;94691.02;;;7.45;48.51
48156;BME280;35568;48.104;11.782;2023-04-02T02:58:14;94692.77;;;7.46;48.62
48156;BME280;35568;48.104;11.782;2023-04-02T03:03:04;94696.27;;;7.28;48.68
48156;BME280;35568;48.104;11.782;2023-04-02T03:05:33;94693.56;;;7.40;48.32
48156;BME280;35568;48.104;11.782;2023-04-02T03:08:02;94698.38;;;7.48;48.62
48156;BME280;35568;48.104;11.782;2023-04-02T03:10:37;94700.69;;;7.45;48.55
48156;BME280;35568;48.104;11.782;2023-04-02T03:13:14;94699.04;;;7.18;48.78
48156;BME280;35568;48.104;11.782;2023-04-02T03:15:53;94706.50;;;7.18;48.94
48156;BME280;35568;48.104;11.782;2023-04-02T03:18:30;94704.50;;;7.50;48.60
48156;BME280;35568;48.104;11.782;2023-04-02T03:21:04;94703.20;;;7.49;48.66
48156;BME280;35568;48.104;11.782;2023-04-02T03:23:35;94707.13;;;7.46;48.64
48156;BME280;35568;48.104;11.782;2023-04-02T03:26:09;94705.74;;;7.56;48.45
48156;BME280;35568;48.104;11.782;2023-04-02T03:28:41;94709.17;;;7.68;48.14
48156;BME280;35568;48.104;11.782;2023-04-02T03:31:14;94712.20;;;7.31;48.44
48156;BME280;35568;48.104;11.782;2023-04-02T03:33:46;94712.12;;;7.27;48.54
48156;BME280;35568;48.104;11.782;2023-04-02T03:36:18;94716.80;;;7.32;48.73
48156;BME280;35568;48.104;11.782;2023-04-02T03:38:50;94714.59;;;7.37;48.70
48156;BME280;35568;48.104;11.782;2023-04-02T03:41:23;94719.18;;;7.50;48.42
48156;BME280;35568;48.104;11.782;2023-04-02T03:43:57;94723.04;;;7.41;48.45
48156;BME280;35568;48.104;11.782;2023-04-02T03:46:28;94727.16;;;7.50;48.32
48156;BME280;35568;48.104;11.782;2023-04-02T03:48:59;94729.16;;;7.11;48.88
48156;BME280;35568;48.104;11.782;2023-04-02T03:51:31;94730.21;;;7.00;48.87
48156;BME280;35568;48.104;11.782;2023-04-02T03:53:59;94728.80;;;7.25;48.56
48156;BME280;35568;48.104;11.782;2023-04-02T03:56:28;94728.22;;;7.12;49.06
48156;BME280;35568;48.104;11.782;2023-04-02T03:59:03;94730.94;;;7.26;48.89
48156;BME280;35568;48.104;11.782;2023-04-02T04:01:36;94735.36;;;7.35;48.59
48156;BME280;35568;48.104;11.782;2023-04-02T04:04:11;94737.88;;;7.40;48.54
48156;BME280;35568;48.104;11.782;2023-04-02T04:06:41;94743.34;;;7.40;48.54
48156;BME280;35568;48.104;11.782;2023-04-02T04:09:11;94745.39;;;7.17;48.76
48156;BME280;35568;48.104;11.782;2023-04-02T04:11:47;94747.98;;;7.21;48.76
48156;BME280;35568;48.104;11.782;2023-04-02T04:14:17;94751.58;;;7.28;48.71
48156;BME280;35568;48.104;11.782;2023-04-02T04:16:49;94754.79;;;7.20;48.80
48156;BME280;35568;48.104;11.782;2023-04-02T04:19:21;94757.20;;;7.25;48.67
48156;BME280;35568;48.104;11.782;2023-04-02T04:21:50;94762.40;;;7.31;48.46
48156;BME280;35568;48.104;11.782;2023-04-02T04:24:19;94766.58;;;7.26;48.51
48156;BME280;35568;48.104;11.782;2023-04-02T04:26:53;94766.21;;;7.13;48.91
48156;BME280;35568;48.104;11.782;2023-04-02T04:29:32;94768.09;;;6.96;49.02
48156;BME280;35568;48.104;11.782;2023-04-02T04:32:13;94773.47;;;7.18;48.86
48156;BME280;35568;48.104;11.782;2023-04-02T04:34:46;94775.83;;;7.35;48.80
48156;BME280;35568;48.104;11.782;2023-04-02T04:37:18;94781.72;;;7.02;48.88
48156;BME280;35568;48.104;11.782;2023-04-02T04:39:51;94787.13;;;7.40;48.61
48156;BME280;35568;48.104;11.782;2023-04-02T04:42:23;94790.38;;;7.73;48.46
48156;BME280;35568;48.104;11.782;2023-04-02T04:44:56;94789.22;;;7.78;48.54
48156;BME280;35568;48.104;11.782;2023-04-02T04:47:28;94793.37;;;7.30;48.31
48156;BME280;35568;48.104;11.782;2023-04-02T04:49:58;94794.53;;;7.61;48.51
48156;BME280;35568;48.104;11.782;2023-04-02T04:52:29;94798.81;;;7.46;48.37
48156;BME280;35568;48.104;11.782;2023-04-02T04:54:59;94800.92;;;7.55;48.25
48156;BME280;35568;48.104;11.782;2023-04-02T04:57:29;94803.12;;;7.44;48.16
48156;BME280;35568;48.104;11.782;2023-04-02T05:00:02;94807.51;;;7.44;47.99
48156;BME280;35568;48.104;11.782;2023-04-02T05:02:34;94810.20;;;7.20;48.73
48156;BME280;35568;48.104;11.782;2023-04-02T05:05:17;94813.90;;;7.15;48.50
48156;BME280;35568;48.104;11.782;2023-04-02T05:07:48;94812.37;;;7.31;48.07
48156;BME280;35568;48.104;11.782;2023-04-02T05:10:20;94817.14;;;7.39;48.13
48156;BME280;35568;48.104;11.782;2023-04-02T05:12:55;94817.37;;;7.42;48.12
48156;BME280;35568;48.104;11.782;2023-04-02T05:15:28;94819.43;;;7.41;48.31
48156;BME280;35568;48.104;11.782;2023-04-02T05:18:12;94826.18;;;7.15;48.17
48156;BME280;35568;48.104;11.782;2023-04-02T05:20:45;94834.42;;;7.40;48.56
48156;BME280;35568;48.104;11.782;2023-04-02T05:23:17;94832.74;;;7.48;48.53
48156;BME280;35568;48.104;11.782;2023-04-02T05:25:53;94834.13;;;7.23;48.43
48156;BME280;35568;48.104;11.782;2023-04-02T05:28:27;94836.13;;;7.12;48.51
48156;BME280;35568;48.104;11.782;2023-04-02T05:30:58;94841.39;;;7.34;48.54
48156;BME280;35568;48.104;11.782;2023-04-02T05:33:29;94843.63;;;7.07;48.74
48156;BME280;35568;48.104;11.782;2023-04-02T05:36:00;94843.42;;;6.98;48.91
48156;BME280;35568;48.104;11.782;2023-04-02T05:38:32;94849.93;;;7.52;48.32
48156;BME280;35568;48.104;11.782;2023-04-02T05:41:03;94851.95;;;7.53;48.41
48156;BME280;35568;48.104;11.782;2023-04-02T05:43:33;94850.07;;;7.30;48.58
48156;BME280;35568;48.104;11.782;2023-04-02T05:46:06;94854.33;;;7.20;48.71
48156;BME280;35568;48.104;11.782;2023-04-02T05:48:42;94856.58;;;7.21;48.56
48156;BME280;35568;48.104;11.782;2023-04-02T05:51:15;94859.13;;;7.33;48.52
48156;BME280;35568;48.104;11.782;2023-04-02T05:53:47;94861.75;;;7.18;48.72
48156;BME280;35568;48.104;11.782;2023-04-02T05:56:17;94863.08;;;7.25;48.62
48156;BME280;35568;48.104;11.782;2023-04-02T05:58:49;94861.64;;;7.34;48.43
48156;BME280;35568;48.104;11.782;2023-04-02T06:01:22;94868.67;;;7.26;48.70
48156;BME280;35568;48.104;11.782;2023-04-02T06:03:56;94868.02;;;7.10;48.46
48156;BME280;35568;48.104;11.782;2023-04-02T06:06:43;94870.58;;;7.32;48.43
48156;BME280;35568;48.104;11.782;2023-04-02T06:09:15;94873.18;;;7.55;48.46
48156;BME280;35568;48.104;11.782;2023-04-02T06:11:46;94876.79;;;7.51;48.42
48156;BME280;35568;48.104;11.782;2023-04-02T06:14:16;94880.06;;;7.60;48.25
48156;BME280;35568;48.104;11.782;2023-04-02T06:16:44;94880.27;;;7.40;48.35
48156;BME280;35568;48.104;11.782;2023-04-02T06:19:17;94881.64;;;7.53;48.16
48156;BME280;35568;48.104;11.782;2023-04-02T06:21:49;94883.51;;;7.49;48.38
48156;BME280;35568;48.104;11.782;2023-04-02T06:24:19;94881.53;;;7.12;48.66
48156;BME280;35568;48.104;11.782;2023-04-02T06:26:51;94885.84;;;7.37;48.78
48156;BME280;35568;48.104;11.782;2023-04-02T06:29:26;94882.25;;;7.19;48.64
48156;BME280;35568;48.104;11.782;2023-04-02T06:31:59;94889.79;;;7.03;48.95
48156;BME280;35568;48.104;11.782;2023-04-02T06:34:28;94892.96;;;7.55;48.55
48156;BME280;35568;48.104;11.782;2023-04-02T06:36:58;94894.92;;;7.40;48.68
48156;BME280;35568;48.104;11.782;2023-04-02T06:39:26;94895.40;;;7.57;48.46
48156;BME280;35568;48.104;11.782;2023-04-02T06:41:58;94898.64;;;7.63;48.46
48156;BME280;35568;48.104;11.782;2023-04-02T06:44:30;94898.34;;;7.25;48.40
48156;BME280;35568;48.104;11.782;2023-04-02T06:46:59;94903.56;;;7.52;48.15
48156;BME280;35568;48.104;11.782;2023-04-02T06:49:31;94908.57;;;7.60;48.22
48156;BME280;35568;48.104;11.782;2023-04-02T06:52:01;94911.92;;;7.34;48.16
48156;BME280;35568;48.104;11.782;2023-04-02T06:54:29;94916.00;;;7.49;48.55
48156;BME280;35568;48.104;11.782;2023-04-02T06:56:56;94918.13;;;7.53;48.23
48156;BME280;35568;48.104;11.782;2023-04-02T06:59:24;94923.53;;;7.75;47.99
48156;BME280;35568;48.104;11.782;2023-04-02T07:01:55;94928.97;;;8.20;48.06
48156;BME280;35568;48.104;11.782;2023-04-02T07:04:24;94933.30;;;8.42;47.17
48156;BME280;35568;48.104;11.782;2023-04-02T07:06:52;94934.79;;;8.04;47.11
48156;BME280;35568;48.104;11.782;2023-04-02T07:09:18;94933.40;;;8.51;47.35
48156;BME280;35568;48.104;11.782;2023-04-02T07:11:45;94933.07;;;8.18;47.23
48156;BME280;35568;48.104;11.782;2023-04-02T07:14:12;94933.29;;;8.21;47.53
48156;BME280;35568;48.104;11.782;2023-04-02T07:16:41;94936.65;;;8.26;47.29
48156;BME280;35568;48.104;11.782;2023-04-02T07:19:16;94941.55;;;8.10;47.30
48156;BME280;35568;48.104;11.782;2023-04-02T07:21:44;94942.25;;;8.28;47.15
48156;BME280;35568;48.104;11.782;2023-04-02T07:24:11;94945.50;;;8.42;46.96
48156;BME280;35568;48.104;11.782;2023-04-02T07:26:38;94945.86;;;8.61;46.45
48156;BME280;35568;48.104;11.782;2023-04-02T07:29:05;94948.18;;;8.87;46.09
48156;BME280;35568;48.104;11.782;2023-04-02T07:31:32;94949.65;;;9.09;45.84
48156;BME280;35568;48.104;11.782;2023-04-02T07:33:59;94950.75;;;9.33;45.60
48156;BME280;35568;48.104;11.782;2023-04-02T07:36:28;94954.38;;;9.30;45.11
48156;BME280;35568;48.104;11.782;2023-04-02T07:38:55;94958.60;;;9.18;45.08
48156;BME280;35568;48.104;11.782;2023-04-02T07:41:22;94962.16;;;9.25;45.85
48156;BME280;35568;48.104;11.782;2023-04-02T07:43:49;94963.07;;;9.58;44.80
48156;BME280;35568;48.104;11.782;2023-04-02T07:46:16;94964.54;;;9.51;44.74
48156;BME280;35568;48.104;11.782;2023-04-02T07:48:44;94971.08;;;9.11;45.00
48156;BME280;35568;48.104;11.782;2023-04-02T07:51:16;94972.29;;;9.16;44.92
48156;BME280;35568;48.104;11.782;2023-04-02T07:53:43;94973.42;;;9.18;44.89
48156;BME280;35568;48.104;11.782;2023-04-02T07:56:13;94979.89;;;9.48;44.88
48156;BME280;35568;48.104;11.782;2023-04-02T07:58:41;94985.11;;;9.52;45.33
48156;BME280;35568;48.104;11.782;2023-04-02T08:01:16;94984.39;;;9.45;44.90
48156;BME280;35568;48.104;11.782;2023-04-02T08:03:43;94989.99;;;9.29;44.60
48156;BME280;35568;48.104;11.782;2023-04-02T08:06:09;94988.72;;;9.78;44.86
48156;BME280;35568;48.104;11.782;2023-04-02T08:08:36;94990.72;;;10.12;44.28
48156;BME280;35568;48.104;11.782;2023-04-02T08:11:04;94997.90;;;10.00;43.81
48156;BME280;35568;48.104;11.782;2023-04-02T08:13:31;94993.15;;;9.98;43.60
48156;BME280;35568;48.104;11.782;2023-04-02T08:15:58;94997.91;;;10.26;43.60
48156;BME280;35568;48.104;11.782;2023-04-02T08:18:26;94999.43;;;10.43;43.44
48156;BME280;35568;48.104;11.782;2023-04-02T08:20:53;95000.77;;;10.39;43.36
48156;BME280;35568;48.104;11.782;2023-04-02T08:23:21;95005.67;;;10.44;42.84
48156;BME280;35568;48.104;11.782;2023-04-02T08:25:48;95005.55;;;10.27;43.15
48156;BME280;35568;48.104;11.782;2023-04-02T08:28:16;95006.44;;;10.98;43.42
48156;BME280;35568;48.104;11.782;2023-04-02T08:30:43;95012.73;;;11.15;42.27
48156;BME280;35568;48.104;11.782;2023-04-02T08:33:10;95010.93;;;11.28;42.21
48156;BME280;35568;48.104;11.782;2023-04-02T08:35:36;95010.34;;;11.37;41.95
48156;BME280;35568;48.104;11.782;2023-04-02T08:38:03;95018.38;;;11.14;41.92
48156;BME280;35568;48.104;11.782;2023-04-02T08:40:33;95018.79;;;11.09;41.61
48156;BME280;35568;48.104;11.782;2023-04-02T08:43:13;95017.07;;;10.92;42.12
48156;BME280;35568;48.104;11.782;2023-04-02T08:45:53;95022.04;;;11.00;42.06
48156;BME280;35568;48.104;11.782;2023-04-02T08:48:22;95024.10;;;10.77;43.11
48156;BME280;35568;48.104;11.782;2023-04-02T08:50:50;95023.07;;;11.20;41.57
48156;BME280;35568;48.104;11.782;2023-04-02T08:53:20;95026.38;;;11.47;41.35
48156;BME280;35568;48.104;11.782;2023-04-02T08:55:55;95019.60;;;11.44;40.81
48156;BME280;35568;48.104;11.782;2023-04-02T08:58:30;95023.88;;;11.81;40.85
48156;BME280;35568;48.104;11.782;2023-04-02T09:01:01;95027.28;;;11.96;40.53
48156;BME280;35568;48.104;11.782;2023-04-02T09:03:33;95029.84;;;12.31;40.54
48156;BME280;35568;48.104;11.782;2023-04-02T09:06:03;95030.05;;;12.10;39.75
48156;BME280;35568;48.104;11.782;2023-04-02T09:08:31;95028.50;;;11.60;40.62
48156;BME280;35568;48.104;11.782;2023-04-02T09:11:03;95030.71;;;11.82;40.23
48156;BME280;35568;48.104;11.782;2023-04-02T09:13:33;95037.67;;;12.21;40.51
48156;BME280;35568;48.104;11.782;2023-04-02T09:16:06;95041.18;;;12.13;39.81
48156;BME280;35568;48.104;11.782;2023-04-02T09:18:34;95043.99;;;11.85;40.41
48156;BME280;35568;48.104;11.782;2023-04-02T09:21:14;95047.78;;;12.61;39.75
48156;BME280;35568;48.104;11.782;2023-04-02T09:23:44;95048.83;;;12.59;38.85
48156;BME280;35568;48.104;11.782;2023-04-02T09:26:19;95052.75;;;12.59;39.64
48156;BME280;35568;48.104;11.782;2023-04-02T09:28:47;95056.89;;;12.06;39.15
48156;BME280;35568;48.104;11.782;2023-04-02T09:31:33;95054.98;;;12.40;39.00
48156;BME280;35568;48.104;11.782;2023-04-02T09:34:00;95061.31;;;12.60;39.27
48156;BME280;35568;48.104;11.782;2023-04-02T09:36:33;95056.85;;;12.52;38.99
48156;BME280;35568;48.104;11.782;2023-04-02T09:39:04;95064.78;;;12.47;39.47
48156;BME280;35568;48.104;11.782;2023-04-02T09:41:33;95068.37;;;12.95;38.87
48156;BME280;35568;48.104;11.782;2023-04-02T09:44:20;95064.85;;;13.83;38.36
48156;BME280;35568;48.104;11.782;2023-04-02T09:46:50;95067.88;;;13.45;36.80
48156;BME280;35568;48.104;11.782;2023-04-02T09:49:17;95066.66;;;14.24;37.11
48156;BME280;35568;48.104;11.782;2023-04-02T09:51:44;95076.43;;;14.49;35.58
48156;BME280;35568;48.104;11.782;2023-04-02T09:54:14;95073.41;;;15.42;34.91
48156;BME280;35568;48.104;11.782;2023-04-02T09:56:59;95068.26;;;16.26;34.63
48156;BME280;35568;48.104;11.782;2023-04-02T09:59:27;95068.24;;;16.46;33.36
48156;BME280;35568;48.104;11.782;2023-04-02T10:01:58;95073.56;;;15.33;33.27
48156;BME280;35568;48.104;11.782;2023-04-02T10:04:34;95078.13;;;13.89;34.83
48156;BME280;35568;48.104;11.782;2023-04-02T10:07:02;95077.89;;;14.24;35.27
48156;BME280;35568;48.104;11.782;2023-04-02T10:09:31;95079.76;;;15.14;34.91
48156;BME280;35568;48.104;11.782;2023-04-02T10:12:00;95081.24;;;14.38;34.69
48156;BME280;35568;48.104;11.782;2023-04-02T10:14:31;95084.76;;;14.40;35.22
48156;BME280;35568;48.104;11.782;2023-04-02T10:17:04;95086.80;;;14.02;35.49
48156;BME280;35568;48.104;11.782;2023-04-02T10:19:35;95083.45;;;13.54;35.91
48156;BME280;35568;48.104;11.782;2023-04-02T10:22:07;95079.37;;;13.46;35.56
48156;BME280;35568;48.104;11.782;2023-04-02T10:24:36;95082.94;;;13.83;36.35
48156;BME280;35568;48.104;11.782;2023-04-02T10:27:13;95074.51;;;13.43;35.76
48156;BME280;35568;48.104;11.782;2023-04-02T10:29:51;95079.35;;;13.59;36.42
48156;BME280;35568;48.104;11.782;2023-04-02T10:32:24;95083.58;;;13.20;36.75
48156;BME280;35568;48.104;11.782;2023-04-02T10:34:59;95084.43;;;13.38;36.76
48156;BME280;35568;48.104;11.782;2023-04-02T10:37:43;95088.30;;;13.31;36.91
48156;BME280;35568;48.104;11.782;2023-04-02T10:40:20;95085.90;;;13.33;37.87
48156;BME280;35568;48.104;11.782;2023-04-02T10:42:55;95090.46;;;13.08;37.71
48156;BME280;35568;48.104;11.782;2023-04-02T10:45:34;95093.23;;;13.74;36.65
48156;BME280;35568;48.104;11.782;2023-04-02T10:48:09;95092.92;;;13.86;36.08
48156;BME280;35568;48.104;11.782;2023-04-02T10:50:41;95099.39;;;14.11;36.12
48156;BME280;35568;48.104;11.782;2023-04-02T10:53:13;95097.35;;;13.77;36.63
48156;BME280;35568;48.104;11.782;2023-04-02T10:55:44;95098.26;;;12.89;36.73
48156;BME280;35568;48.104;11.782;2023-04-02T10:58:21;95098.35;;;12.81;37.41
48156;BME280;35568;48.104;11.782;2023-04-02T11:00:49;95102.45;;;13.28;37.42
48156;BME280;35568;48.104;11.782;2023-04-02T11:03:27;95101.61;;;13.34;37.49
48156;BME280;35568;48.104;11.782;2023-04-02T11:05:57;95102.74;;;13.20;37.42
48156;BME280;35568;48.104;11.782;2023-04-02T11:08:30;95104.18;;;13.13;37.00
48156;BME280;35568;48.104;11.782;2023-04-02T11:11:05;95105.49;;;13.97;36.95
48156;BME280;35568;48.104;11.782;2023-04-02T11:13:43;95105.67;;;13.90;36.41
48156;BME280;35568;48.104;11.782;2023-04-02T11:16:12;95105.09;;;13.83;36.47
48156;BME280;35568;48.104;11.782;2023-04-02T11:18:39;95106.28;;;14.14;35.70
48156;BME280;35568;48.104;11.782;2023-04-02T11:21:16;95107.86;;;13.80;36.02
48156;BME280;35568;48.104;11.782;2023-04-02T11:24:04;95107.19;;;13.13;36.54
48156;BME280;35568;48.104;11.782;2023-04-02T11:26:36;95109.31;;;13.04;37.27
48156;BME280;35568;48.104;11.782;2023-04-02T11:29:13;95112.84;;;12.88;37.80
48156;BME280;35568;48.104;11.782;2023-04-02T11:31:41;95116.25;;;12.78;38.36
48156;BME280;35568;48.104;11.782;2023-04-02T11:34:12;95117.67;;;12.47;38.15
48156;BME280;35568;48.104;11.782;2023-04-02T11:37:30;95119.51;;;12.59;38.32
48156;BME280;35568;48.104;11.782;2023-04-02T11:39:58;95124.23;;;12.48;37.80
48156;BME280;35568;48.104;11.782;2023-04-02T11:42:28;95126.96;;;13.02;38.05
48156;BME280;35568;48.104;11.782;2023-04-02T11:44:58;95133.20;;;12.75;38.00
48156;BME280;35568;48.104;11.782;2023-04-02T11:47:27;95136.90;;;12.54;38.91
48156;BME280;35568;48.104;11.782;2023-04-02T11:49:58;95137.10;;;12.64;39.61
48156;BME280;35568;48.104;11.782;2023-04-02T11:52:29;95138.38;;;12.34;40.10
48156;BME280;35568;48.104;11.782;2023-04-02T11:55:01;95140.96;;;12.57;40.82
48156;BME280;35568;48.104;11.782;2023-04-02T11:57:42;95144.15;;;11.93;42.08
48156;BME280;35568;48.104;11.782;2023-04-02T12:00:24;95144.22;;;12.34;42.10
48156;BME280;35568;48.104;11.782;2023-04-02T12:03:11;95142.76;;;12.60;41.20
48156;BME280;35568;48.104;11.782;2023-04-02T12:05:48;95148.26;;;12.16;41.16
48156;BME280;35568;48.104;11.782;2023-04-02T12:08:24;95149.32;;;11.79;41.63
48156;BME280;35568;48.104;11.782;2023-04-02T12:10:56;95150.12;;;12.02;42.03
48156;BME280;35568;48.104;11.782;2023-04-02T12:13:58;95151.12;;;12.10;41.55
48156;BME280;35568;48.104;11.782;2023-04-02T12:16:26;95153.98;;;12.26;40.98
48156;BME280;35568;48.104;11.782;2023-04-02T12:18:54;95150.75;;;12.56;41.43
48156;BME280;35568;48.104;11.782;2023-04-02T12:21:23;95154.28;;;13.07;41.33
48156;BME280;35568;48.104;11.782;2023-04-02T12:23:52;95154.49;;;13.19;40.06
48156;BME280;35568;48.104;11.782;2023-04-02T12:26:31;95155.03;;;13.06;40.14
48156;BME280;35568;48.104;11.782;2023-04-02T12:29:15;95154.24;;;13.34;39.61
48156;BME280;35568;48.104;11.782;2023-04-02T12:31:42;95155.53;;;14.05;39.06
48156;BME280;35568;48.104;11.782;2023-04-02T12:34:13;95158.70;;;14.36;38.06
48156;BME280;35568;48.104;11.782;2023-04-02T12:36:51;95161.96;;;15.23;36.67
48156;BME280;35568;48.104;11.782;2023-04-02T12:39:18;95160.36;;;14.78;36.35
48156;BME280;35568;48.104;11.782;2023-04-02T12:41:44;95167.52;;;14.22;38.69
48156;BME280;35568;48.104;11.782;2023-04-02T12:44:14;95173.82;;;13.46;41.96
48156;BME280;35568;48.104;11.782;2023-04-02T12:46:43;95178.08;;;12.43;44.59
48156;BME280;35568;48.104;11.782;2023-04-02T12:49:20;95182.09;;;11.97;45.54
48156;BME280;35568;48.104;11.782;2023-04-02T12:51:48;95188.19;;;11.40;47.93
48156;BME280;35568;48.104;11.782;2023-04-02T12:54:17;95193.41;;;11.20;49.92
48156;BME280;35568;48.104;11.782;2023-04-02T12:56:44;95194.73;;;11.39;49.74
48156;BME280;35568;48.104;11.782;2023-04-02T12:59:28;95196.56;;;11.21;50.23
48156;BME280;35568;48.104;11.782;2023-04-02T13:01:58;95197.04;;;10.80;50.62
48156;BME280;35568;48.104;11.782;2023-04-02T13:04:26;95198.36;;;10.77;51.21
48156;BME280;35568;48.104;11.782;2023-04-02T13:06:54;95200.17;;;10.87;50.87
48156;BME280;35568;48.104;11.782;2023-04-02T13:09:29;95197.83;;;10.93;49.94
48156;BME280;35568;48.104;11.782;2023-04-02T13:11:56;95197.52;;;10.98;49.07
48156;BME280;35568;48.104;11.782;2023-04-02T13:14:24;95201.81;;;10.39;49.99
48156;BME280;35568;48.104;11.782;2023-04-02T13:16:53;95197.22;;;10.66;51.76
48156;BME280;35568;48.104;11.782;2023-04-02T13:19:24;95198.01;;;10.53;51.88
48156;BME280;35568;48.104;11.782;2023-04-02T13:21:52;95200.34;;;10.28;52.12
48156;BME280;35568;48.104;11.782;2023-04-02T13:24:21;95204.28;;;10.45;51.51